sensor_id;sensor_type;location;lat;lon;timestamp;pressure;altitude;pressure_sealevel;temperature;humidity
16664;BME280;8445;51.270;9.434;2024-02-04T00:00:48;100106.94;;;8.95;83.23
16664;BME280;8445;51.270;9.434;2024-02-04T00:03:14;100101.63;;;8.95;82.98
16664;BME280;8445;51.270;9.434;2024-02-04T00:05:40;100089.34;;;8.94;83.16
16664;BME280;8445;51.270;9.434;2024-02-04T00:08:07;100089.03;;;8.97;83.22
16664;BME280;8445;51.270;9.434;2024-02-04T00:10:33;100080.88;;;8.98;82.77
16664;BME280;8445;51.270;9.434;2024-02-04T00:12:58;100082.56;;;8.99;83.00
16664;BME280;8445;51.270;9.434;2024-02-04T00:15:25;100064.28;;;8.88;82.63
16664;BME280;8445;51.270;9.434;2024-02-04T00:17:51;100079.22;;;8.97;83.13
16664;BME280;8445;51.270;9.434;2024-02-04T00:20:17;100083.38;;;9.00;82.60
16664;BME280;8445;51.270;9.434;2024-02-04T00:22:43;100071.44;;;8.96;82.84
16664;BME280;8445;51.270;9.434;2024-02-04T00:25:08;100072.75;;;9.00;82.54
16664;BME280;8445;51.270;9.434;2024-02-04T00:27:37;100057.81;;;8.99;82.77
16664;BME280;8445;51.270;9.434;2024-02-04T00:30:04;100050.31;;;9.02;83.09
16664;BME280;8445;51.270;9.434;2024-02-04T00:32:30;100057.78;;;9.07;82.65
16664;BME280;8445;51.270;9.434;2024-02-04T00:34:56;100061.13;;;9.09;83.16
16664;BME280;8445;51.270;9.434;2024-02-04T00:37:22;100059.97;;;9.11;82.60
16664;BME280;8445;51.270;9.434;2024-02-04T00:39:48;100057.47;;;9.10;82.39
16664;BME280;8445;51.270;9.434;2024-02-04T00:42:14;100055.47;;;9.12;82.55
16664;BME280;8445;51.270;9.434;2024-02-04T00:44:40;100041.72;;;9.08;82.54
16664;BME280;8445;51.270;9.434;2024-02-04T00:47:06;100071.09;;;9.15;82.39
16664;BME280;8445;51.270;9.434;2024-02-04T00:49:32;100055.81;;;9.09;82.75
16664;BME280;8445;51.270;9.434;2024-02-04T00:51:58;100065.75;;;9.15;82.53
16664;BME280;8445;51.270;9.434;2024-02-04T00:54:24;100076.88;;;9.18;82.63
16664;BME280;8445;51.270;9.434;2024-02-04T00:56:50;100073.91;;;9.22;82.48
16664;BME280;8445;51.270;9.434;2024-02-04T00:59:16;100082.72;;;9.22;82.60
16664;BME280;8445;51.270;9.434;2024-02-04T01:01:42;100074.41;;;9.25;82.44
16664;BME280;8445;51.270;9.434;2024-02-04T01:04:08;100082.88;;;9.29;82.32
16664;BME280;8445;51.270;9.434;2024-02-04T01:06:34;100076.38;;;9.31;82.46
16664;BME280;8445;51.270;9.434;2024-02-04T01:09:00;100058.13;;;9.28;81.99
16664;BME280;8445;51.270;9.434;2024-02-04T01:11:26;100057.78;;;9.31;82.37
16664;BME280;8445;51.270;9.434;2024-02-04T01:13:52;100044.47;;;9.31;82.10
16664;BME280;8445;51.270;9.434;2024-02-04T01:16:18;100067.88;;;9.44;82.21
16664;BME280;8445;51.270;9.434;2024-02-04T01:18:44;100037.69;;;9.37;81.75
16664;BME280;8445;51.270;9.434;2024-02-04T01:21:10;100040.81;;;9.32;81.86
16664;BME280;8445;51.270;9.434;2024-02-04T01:23:35;100056.94;;;9.31;81.73
16664;BME280;8445;51.270;9.434;2024-02-04T01:26:01;100069.75;;;9.27;82.03
16664;BME280;8445;51.270;9.434;2024-02-04T01:28:27;100061.75;;;9.19;81.66
16664;BME280;8445;51.270;9.434;2024-02-04T01:30:53;100066.44;;;9.17;81.88
16664;BME280;8445;51.270;9.434;2024-02-04T01:33:19;100061.44;;;9.14;82.05
16664;BME280;8445;51.270;9.434;2024-02-04T01:35:46;100071.91;;;9.15;82.14
16664;BME280;8445;51.270;9.434;2024-02-04T01:38:12;100073.41;;;9.18;81.90
16664;BME280;8445;51.270;9.434;2024-02-04T01:40:38;100068.91;;;9.27;81.60
16664;BME280;8445;51.270;9.434;2024-02-04T01:43:04;100058.28;;;9.27;82.06
16664;BME280;8445;51.270;9.434;2024-02-04T01:45:30;100042.34;;;9.27;81.89
16664;BME280;8445;51.270;9.434;2024-02-04T01:47:56;100049.97;;;9.38;81.59
16664;BME280;8445;51.270;9.434;2024-02-04T01:50:23;100045.44;;;9.46;81.69
16664;BME280;8445;51.270;9.434;2024-02-04T01:52:50;100029.19;;;9.41;81.69
16664;BME280;8445;51.270;9.434;2024-02-04T01:55:17;100047.44;;;9.53;81.85
16664;BME280;8445;51.270;9.434;2024-02-04T01:57:44;100044.94;;;9.51;81.81
16664;BME280;8445;51.270;9.434;2024-02-04T02:00:12;100039.28;;;9.54;81.61
16664;BME280;8445;51.270;9.434;2024-02-04T02:02:40;100040.59;;;9.58;81.40
16664;BME280;8445;51.270;9.434;2024-02-04T02:05:08;100047.75;;;9.66;81.71
16664;BME280;8445;51.270;9.434;2024-02-04T02:07:36;100051.06;;;9.68;81.73
16664;BME280;8445;51.270;9.434;2024-02-04T02:10:02;100040.22;;;9.69;81.64
16664;BME280;8445;51.270;9.434;2024-02-04T02:12:39;100041.25;;;9.68;81.56
16664;BME280;8445;51.270;9.434;2024-02-04T02:15:15;100028.59;;;9.70;81.41
16664;BME280;8445;51.270;9.434;2024-02-04T02:17:55;100036.72;;;9.77;80.87
16664;BME280;8445;51.270;9.434;2024-02-04T02:21:30;100033.72;;;9.80;81.30
16664;BME280;8445;51.270;9.434;2024-02-04T02:26:34;100030.53;;;9.85;81.45
16664;BME280;8445;51.270;9.434;2024-02-04T02:29:07;100038.34;;;9.86;81.05
16664;BME280;8445;51.270;9.434;2024-02-04T02:31:38;100028.69;;;9.85;81.16
16664;BME280;8445;51.270;9.434;2024-02-04T02:34:06;100046.66;;;9.91;80.83
16664;BME280;8445;51.270;9.434;2024-02-04T02:36:50;100040.16;;;9.94;80.82
16664;BME280;8445;51.270;9.434;2024-02-04T02:39:32;100040.16;;;9.94;80.69
16664;BME280;8445;51.270;9.434;2024-02-04T02:42:03;100047.13;;;9.95;80.83
16664;BME280;8445;51.270;9.434;2024-02-04T02:44:31;100041.16;;;9.93;80.96
16664;BME280;8445;51.270;9.434;2024-02-04T02:47:00;100040.97;;;9.94;81.33
16664;BME280;8445;51.270;9.434;2024-02-04T02:49:28;100045.13;;;9.97;80.96
16664;BME280;8445;51.270;9.434;2024-02-04T02:51:54;100043.94;;;9.99;80.89
16664;BME280;8445;51.270;9.434;2024-02-04T02:54:20;100032.81;;;9.96;81.27
16664;BME280;8445;51.270;9.434;2024-02-04T02:56:46;100024.47;;;9.99;80.89
16664;BME280;8445;51.270;9.434;2024-02-04T02:59:12;100026.84;;;9.94;80.87
16664;BME280;8445;51.270;9.434;2024-02-04T03:01:41;100000.09;;;9.87;81.03
16664;BME280;8445;51.270;9.434;2024-02-04T03:04:07;100017.69;;;9.96;81.47
16664;BME280;8445;51.270;9.434;2024-02-04T03:06:33;100011.72;;;9.94;81.33
16664;BME280;8445;51.270;9.434;2024-02-04T03:08:59;100001.78;;;9.88;81.13
16664;BME280;8445;51.270;9.434;2024-02-04T03:11:24;100001.09;;;9.86;81.55
16664;BME280;8445;51.270;9.434;2024-02-04T03:13:50;100009.56;;;9.90;81.42
16664;BME280;8445;51.270;9.434;2024-02-04T03:16:16;99976.88;;;9.73;81.25
16664;BME280;8445;51.270;9.434;2024-02-04T03:18:43;100025.72;;;9.88;81.25
16664;BME280;8445;51.270;9.434;2024-02-04T03:21:16;100009.25;;;9.85;81.54
16664;BME280;8445;51.270;9.434;2024-02-04T03:23:44;100004.94;;;9.84;81.15
16664;BME280;8445;51.270;9.434;2024-02-04T03:26:11;100009.78;;;9.80;81.54
16664;BME280;8445;51.270;9.434;2024-02-04T03:28:37;100008.78;;;9.81;81.76
16664;BME280;8445;51.270;9.434;2024-02-04T03:31:04;99999.78;;;9.82;81.39
16664;BME280;8445;51.270;9.434;2024-02-04T03:33:30;99988.19;;;9.75;81.50
16664;BME280;8445;51.270;9.434;2024-02-04T03:35:56;100003.94;;;9.85;81.83
16664;BME280;8445;51.270;9.434;2024-02-04T03:38:22;99996.66;;;9.78;81.40
16664;BME280;8445;51.270;9.434;2024-02-04T03:40:50;99993.09;;;9.86;81.40
16664;BME280;8445;51.270;9.434;2024-02-04T03:43:16;99997.44;;;9.87;81.39
16664;BME280;8445;51.270;9.434;2024-02-04T03:45:42;99992.09;;;9.87;81.55
16664;BME280;8445;51.270;9.434;2024-02-04T03:48:08;99995.78;;;9.86;81.54
16664;BME280;8445;51.270;9.434;2024-02-04T03:50:36;99988.28;;;9.90;81.39
16664;BME280;8445;51.270;9.434;2024-02-04T03:53:02;99994.44;;;9.90;81.44
16664;BME280;8445;51.270;9.434;2024-02-04T03:55:28;99999.13;;;9.88;81.93
16664;BME280;8445;51.270;9.434;2024-02-04T03:57:55;99997.28;;;9.89;81.32
16664;BME280;8445;51.270;9.434;2024-02-04T04:00:22;99994.63;;;9.89;81.48
16664;BME280;8445;51.270;9.434;2024-02-04T04:02:48;99986.13;;;9.85;81.63
16664;BME280;8445;51.270;9.434;2024-02-04T04:05:14;99998.75;;;9.91;81.43
16664;BME280;8445;51.270;9.434;2024-02-04T04:07:41;99996.28;;;9.90;81.68
16664;BME280;8445;51.270;9.434;2024-02-04T04:10:08;99976.03;;;9.81;81.51
16664;BME280;8445;51.270;9.434;2024-02-04T04:12:34;99997.09;;;9.90;81.50
16664;BME280;8445;51.270;9.434;2024-02-04T04:14:59;99984.31;;;9.86;81.50
16664;BME280;8445;51.270;9.434;2024-02-04T04:17:25;99996.59;;;9.87;81.68
16664;BME280;8445;51.270;9.434;2024-02-04T04:19:52;99990.28;;;9.88;81.90
16664;BME280;8445;51.270;9.434;2024-02-04T04:22:17;99981.47;;;9.87;81.77
16664;BME280;8445;51.270;9.434;2024-02-04T04:24:43;99977.81;;;9.88;81.90
16664;BME280;8445;51.270;9.434;2024-02-04T04:27:09;99974.66;;;9.85;81.95
16664;BME280;8445;51.270;9.434;2024-02-04T04:29:35;99978.50;;;9.82;82.09
16664;BME280;8445;51.270;9.434;2024-02-04T04:32:01;99997.09;;;9.90;82.09
16664;BME280;8445;51.270;9.434;2024-02-04T04:34:27;99988.47;;;9.88;82.15
16664;BME280;8445;51.270;9.434;2024-02-04T04:36:53;99993.78;;;9.88;81.70
16664;BME280;8445;51.270;9.434;2024-02-04T04:39:18;99989.13;;;9.90;81.81
16664;BME280;8445;51.270;9.434;2024-02-04T04:41:44;99979.47;;;9.89;82.14
16664;BME280;8445;51.270;9.434;2024-02-04T04:44:11;99961.91;;;9.80;82.50
16664;BME280;8445;51.270;9.434;2024-02-04T04:46:40;99963.38;;;9.83;82.33
16664;BME280;8445;51.270;9.434;2024-02-04T04:49:06;99976.13;;;9.87;82.30
16664;BME280;8445;51.270;9.434;2024-02-04T04:51:32;99974.84;;;9.83;82.67
16664;BME280;8445;51.270;9.434;2024-02-04T04:53:58;99958.44;;;9.71;82.35
16664;BME280;8445;51.270;9.434;2024-02-04T04:56:24;99944.50;;;9.61;82.79
16664;BME280;8445;51.270;9.434;2024-02-04T04:58:50;99938.03;;;9.64;82.88
16664;BME280;8445;51.270;9.434;2024-02-04T05:01:17;99952.00;;;9.66;83.00
16664;BME280;8445;51.270;9.434;2024-02-04T05:03:43;99950.69;;;9.62;82.82
16664;BME280;8445;51.270;9.434;2024-02-04T05:06:09;99945.38;;;9.54;83.30
16664;BME280;8445;51.270;9.434;2024-02-04T05:08:35;99958.34;;;9.57;82.84
16664;BME280;8445;51.270;9.434;2024-02-04T05:11:01;99977.31;;;9.54;82.97
16664;BME280;8445;51.270;9.434;2024-02-04T05:13:27;99983.63;;;9.53;83.24
16664;BME280;8445;51.270;9.434;2024-02-04T05:15:53;99977.66;;;9.51;82.98
16664;BME280;8445;51.270;9.434;2024-02-04T05:18:19;99946.47;;;9.36;83.29
16664;BME280;8445;51.270;9.434;2024-02-04T05:20:45;99956.69;;;9.47;83.41
16664;BME280;8445;51.270;9.434;2024-02-04T05:23:10;99955.56;;;9.42;83.29
16664;BME280;8445;51.270;9.434;2024-02-04T05:25:37;99934.31;;;9.42;83.55
16664;BME280;8445;51.270;9.434;2024-02-04T05:28:03;99941.75;;;9.46;83.50
16664;BME280;8445;51.270;9.434;2024-02-04T05:30:29;99953.38;;;9.54;83.12
16664;BME280;8445;51.270;9.434;2024-02-04T05:32:55;99956.69;;;9.56;83.46
16664;BME280;8445;51.270;9.434;2024-02-04T05:35:22;99955.84;;;9.55;83.31
16664;BME280;8445;51.270;9.434;2024-02-04T05:37:48;99948.22;;;9.52;83.02
16664;BME280;8445;51.270;9.434;2024-02-04T05:40:14;99955.84;;;9.55;83.55
16664;BME280;8445;51.270;9.434;2024-02-04T05:42:42;99951.38;;;9.56;83.13
16664;BME280;8445;51.270;9.434;2024-02-04T05:45:08;99967.13;;;9.65;83.25
16664;BME280;8445;51.270;9.434;2024-02-04T05:47:34;99962.63;;;9.66;83.29
16664;BME280;8445;51.270;9.434;2024-02-04T05:50:00;99938.41;;;9.53;82.93
16664;BME280;8445;51.270;9.434;2024-02-04T05:52:26;99969.25;;;9.70;83.14
16664;BME280;8445;51.270;9.434;2024-02-04T05:54:52;99957.97;;;9.68;83.12
16664;BME280;8445;51.270;9.434;2024-02-04T05:57:18;99961.91;;;9.72;82.90
16664;BME280;8445;51.270;9.434;2024-02-04T05:59:46;99947.97;;;9.70;82.77
16664;BME280;8445;51.270;9.434;2024-02-04T06:02:14;99951.94;;;9.74;82.83
16664;BME280;8445;51.270;9.434;2024-02-04T06:04:40;99961.25;;;9.78;82.62
16664;BME280;8445;51.270;9.434;2024-02-04T06:07:06;99959.41;;;9.78;82.56
16664;BME280;8445;51.270;9.434;2024-02-04T06:09:35;99966.38;;;9.80;82.66
16664;BME280;8445;51.270;9.434;2024-02-04T06:12:01;99964.38;;;9.82;82.67
16664;BME280;8445;51.270;9.434;2024-02-04T06:14:33;99935.16;;;9.73;82.44
16664;BME280;8445;51.270;9.434;2024-02-04T06:17:00;99954.56;;;9.82;82.54
16664;BME280;8445;51.270;9.434;2024-02-04T06:19:26;99943.63;;;9.77;82.59
16664;BME280;8445;51.270;9.434;2024-02-04T06:21:52;99949.88;;;9.84;82.68
16664;BME280;8445;51.270;9.434;2024-02-04T06:24:18;99955.38;;;9.83;82.70
16664;BME280;8445;51.270;9.434;2024-02-04T06:26:45;99936.78;;;9.83;82.65
16664;BME280;8445;51.270;9.434;2024-02-04T06:29:11;99927.84;;;9.75;82.30
16664;BME280;8445;51.270;9.434;2024-02-04T06:31:37;99939.59;;;9.81;82.66
16664;BME280;8445;51.270;9.434;2024-02-04T06:34:03;99927.31;;;9.80;82.65
16664;BME280;8445;51.270;9.434;2024-02-04T06:36:29;99927.50;;;9.78;82.65
16664;BME280;8445;51.270;9.434;2024-02-04T06:38:55;99923.03;;;9.71;82.44
16664;BME280;8445;51.270;9.434;2024-02-04T06:41:21;99934.66;;;9.78;82.56
16664;BME280;8445;51.270;9.434;2024-02-04T06:43:49;99938.97;;;9.71;82.61
16664;BME280;8445;51.270;9.434;2024-02-04T06:46:25;99948.31;;;9.75;82.92
16664;BME280;8445;51.270;9.434;2024-02-04T06:48:51;99961.91;;;9.72;83.21
16664;BME280;8445;51.270;9.434;2024-02-04T06:51:17;99975.22;;;9.72;83.04
16664;BME280;8445;51.270;9.434;2024-02-04T06:53:43;99963.63;;;9.65;82.89
16664;BME280;8445;51.270;9.434;2024-02-04T06:56:08;99970.56;;;9.74;82.62
16664;BME280;8445;51.270;9.434;2024-02-04T06:58:38;99952.94;;;9.73;82.79
16664;BME280;8445;51.270;9.434;2024-02-04T07:01:04;99955.47;;;9.66;82.46
16664;BME280;8445;51.270;9.434;2024-02-04T07:03:30;99962.94;;;9.71;82.85
16664;BME280;8445;51.270;9.434;2024-02-04T07:05:58;99944.00;;;9.66;82.65
16664;BME280;8445;51.270;9.434;2024-02-04T07:08:24;99934.66;;;9.70;82.60
16664;BME280;8445;51.270;9.434;2024-02-04T07:10:51;99927.03;;;9.67;82.80
16664;BME280;8445;51.270;9.434;2024-02-04T07:13:18;99938.63;;;9.74;82.55
16664;BME280;8445;51.270;9.434;2024-02-04T07:15:44;99936.97;;;9.73;82.86
16664;BME280;8445;51.270;9.434;2024-02-04T07:18:11;99927.34;;;9.72;82.92
16664;BME280;8445;51.270;9.434;2024-02-04T07:20:37;99926.34;;;9.73;82.82
16664;BME280;8445;51.270;9.434;2024-02-04T07:23:04;99910.75;;;9.70;82.46
16664;BME280;8445;51.270;9.434;2024-02-04T07:25:30;99909.91;;;9.69;82.84
16664;BME280;8445;51.270;9.434;2024-02-04T07:27:57;99916.84;;;9.78;82.67
16664;BME280;8445;51.270;9.434;2024-02-04T07:30:24;99911.72;;;9.77;83.02
16664;BME280;8445;51.270;9.434;2024-02-04T07:32:50;99908.41;;;9.75;82.79
16664;BME280;8445;51.270;9.434;2024-02-04T07:35:16;99922.00;;;9.80;82.93
16664;BME280;8445;51.270;9.434;2024-02-04T07:37:42;99917.97;;;9.84;82.91
16664;BME280;8445;51.270;9.434;2024-02-04T07:40:08;99909.69;;;9.79;82.57
16664;BME280;8445;51.270;9.434;2024-02-04T07:42:35;99933.56;;;9.87;82.81
16664;BME280;8445;51.270;9.434;2024-02-04T07:45:00;99940.41;;;9.90;82.91
16664;BME280;8445;51.270;9.434;2024-02-04T07:47:27;99931.25;;;9.92;82.70
16664;BME280;8445;51.270;9.434;2024-02-04T07:49:53;99923.06;;;9.94;82.11
16664;BME280;8445;51.270;9.434;2024-02-04T07:52:22;99916.56;;;9.96;81.86
16664;BME280;8445;51.270;9.434;2024-02-04T07:54:48;99933.50;;;10.03;81.55
16664;BME280;8445;51.270;9.434;2024-02-04T07:57:14;99929.47;;;10.07;81.43
16664;BME280;8445;51.270;9.434;2024-02-04T07:59:40;99935.41;;;10.18;81.09
16664;BME280;8445;51.270;9.434;2024-02-04T08:02:05;99920.91;;;10.20;81.64
16664;BME280;8445;51.270;9.434;2024-02-04T08:04:32;99924.38;;;10.29;80.96
16664;BME280;8445;51.270;9.434;2024-02-04T08:06:58;99917.69;;;10.33;80.51
16664;BME280;8445;51.270;9.434;2024-02-04T08:09:24;99913.47;;;10.39;79.99
16664;BME280;8445;51.270;9.434;2024-02-04T08:11:50;99893.63;;;10.41;80.09
16664;BME280;8445;51.270;9.434;2024-02-04T08:14:16;99902.84;;;10.53;79.73
16664;BME280;8445;51.270;9.434;2024-02-04T08:16:43;99891.69;;;10.58;79.52
16664;BME280;8445;51.270;9.434;2024-02-04T08:19:09;99878.16;;;10.59;79.28
16664;BME280;8445;51.270;9.434;2024-02-04T08:21:35;99883.41;;;10.68;79.38
16664;BME280;8445;51.270;9.434;2024-02-04T08:24:01;99895.00;;;10.75;79.10
16664;BME280;8445;51.270;9.434;2024-02-04T08:26:30;99857.59;;;10.68;78.86
16664;BME280;8445;51.270;9.434;2024-02-04T08:28:56;99877.94;;;10.84;79.16
16664;BME280;8445;51.270;9.434;2024-02-04T08:31:21;99878.84;;;10.91;78.12
16664;BME280;8445;51.270;9.434;2024-02-04T08:33:47;99874.91;;;10.87;77.98
16664;BME280;8445;51.270;9.434;2024-02-04T08:36:13;99879.97;;;10.97;78.08
16664;BME280;8445;51.270;9.434;2024-02-04T08:38:42;99875.28;;;10.99;78.46
16664;BME280;8445;51.270;9.434;2024-02-04T08:41:08;99880.03;;;11.03;78.24
16664;BME280;8445;51.270;9.434;2024-02-04T08:43:34;99877.75;;;11.00;77.67
16664;BME280;8445;51.270;9.434;2024-02-04T08:46:00;99882.72;;;11.03;77.40
16664;BME280;8445;51.270;9.434;2024-02-04T08:48:26;99898.69;;;11.03;77.09
16664;BME280;8445;51.270;9.434;2024-02-04T08:50:52;99890.69;;;11.03;76.32
16664;BME280;8445;51.270;9.434;2024-02-04T08:53:20;99904.22;;;11.02;76.57
16664;BME280;8445;51.270;9.434;2024-02-04T08:55:47;99921.31;;;11.07;77.04
16664;BME280;8445;51.270;9.434;2024-02-04T08:58:12;99920.28;;;11.08;76.96
16664;BME280;8445;51.270;9.434;2024-02-04T09:00:38;99922.63;;;11.11;77.03
16664;BME280;8445;51.270;9.434;2024-02-04T09:03:04;99934.47;;;11.09;76.81
16664;BME280;8445;51.270;9.434;2024-02-04T09:05:30;99943.81;;;11.05;77.53
16664;BME280;8445;51.270;9.434;2024-02-04T09:07:56;99943.38;;;11.01;77.78
16664;BME280;8445;51.270;9.434;2024-02-04T09:10:22;99926.44;;;10.94;77.68
16664;BME280;8445;51.270;9.434;2024-02-04T09:12:48;99939.41;;;10.97;77.77
16664;BME280;8445;51.270;9.434;2024-02-04T09:15:14;99934.09;;;10.97;77.37
16664;BME280;8445;51.270;9.434;2024-02-04T09:17:40;99939.75;;;10.94;77.83
16664;BME280;8445;51.270;9.434;2024-02-04T09:20:07;99943.31;;;11.09;77.76
16664;BME280;8445;51.270;9.434;2024-02-04T09:22:33;99912.66;;;11.20;77.55
16664;BME280;8445;51.270;9.434;2024-02-04T09:24:59;99906.22;;;11.44;77.59
16664;BME280;8445;51.270;9.434;2024-02-04T09:27:26;99907.03;;;11.59;77.21
16664;BME280;8445;51.270;9.434;2024-02-04T09:29:52;99912.91;;;11.69;76.76
16664;BME280;8445;51.270;9.434;2024-02-04T09:32:20;99901.50;;;11.75;76.49
16664;BME280;8445;51.270;9.434;2024-02-04T09:34:46;99904.63;;;11.79;76.57
16664;BME280;8445;51.270;9.434;2024-02-04T09:37:12;99897.69;;;11.84;76.46
16664;BME280;8445;51.270;9.434;2024-02-04T09:39:38;99891.25;;;11.94;76.50
16664;BME280;8445;51.270;9.434;2024-02-04T09:42:04;99880.81;;;11.99;76.29
16664;BME280;8445;51.270;9.434;2024-02-04T09:44:32;99895.25;;;12.04;75.81
16664;BME280;8445;51.270;9.434;2024-02-04T09:47:02;99896.19;;;11.97;75.50
16664;BME280;8445;51.270;9.434;2024-02-04T09:49:30;99906.88;;;11.97;75.85
16664;BME280;8445;51.270;9.434;2024-02-04T09:51:59;99890.03;;;11.96;75.71
16664;BME280;8445;51.270;9.434;2024-02-04T09:54:30;99895.44;;;12.03;75.59
16664;BME280;8445;51.270;9.434;2024-02-04T09:56:58;99893.41;;;12.05;75.17
16664;BME280;8445;51.270;9.434;2024-02-04T09:59:24;99888.00;;;11.98;75.21
16664;BME280;8445;51.270;9.434;2024-02-04T10:01:55;99896.44;;;12.02;75.62
16664;BME280;8445;51.270;9.434;2024-02-04T10:04:25;99895.19;;;11.98;75.47
16664;BME280;8445;51.270;9.434;2024-02-04T10:06:54;99888.31;;;11.89;75.55
16664;BME280;8445;51.270;9.434;2024-02-04T10:09:23;99912.97;;;11.91;75.71
16664;BME280;8445;51.270;9.434;2024-02-04T10:11:49;99895.41;;;11.81;75.84
16664;BME280;8445;51.270;9.434;2024-02-04T10:14:18;99903.63;;;11.80;75.46
16664;BME280;8445;51.270;9.434;2024-02-04T10:16:46;99909.66;;;11.74;75.95
16664;BME280;8445;51.270;9.434;2024-02-04T10:19:12;99912.91;;;11.69;75.77
16664;BME280;8445;51.270;9.434;2024-02-04T10:21:38;99913.91;;;11.68;75.72
16664;BME280;8445;51.270;9.434;2024-02-04T10:24:06;99907.66;;;11.76;75.76
16664;BME280;8445;51.270;9.434;2024-02-04T10:26:33;99904.97;;;11.91;75.90
16664;BME280;8445;51.270;9.434;2024-02-04T10:29:03;99898.38;;;12.08;75.35
16664;BME280;8445;51.270;9.434;2024-02-04T10:31:29;99892.09;;;12.16;74.41
16664;BME280;8445;51.270;9.434;2024-02-04T10:33:56;99884.75;;;12.24;74.63
16664;BME280;8445;51.270;9.434;2024-02-04T10:36:22;99886.66;;;12.30;72.60
16664;BME280;8445;51.270;9.434;2024-02-04T10:38:48;99883.72;;;12.47;71.76
16664;BME280;8445;51.270;9.434;2024-02-04T10:41:16;99895.97;;;12.62;72.01
16664;BME280;8445;51.270;9.434;2024-02-04T10:43:44;99886.81;;;12.78;71.24
16664;BME280;8445;51.270;9.434;2024-02-04T10:46:18;99886.91;;;12.85;70.77
16664;BME280;8445;51.270;9.434;2024-02-04T10:48:51;99873.56;;;12.91;70.57
16664;BME280;8445;51.270;9.434;2024-02-04T10:51:26;99889.28;;;13.08;69.01
16664;BME280;8445;51.270;9.434;2024-02-04T10:53:55;99885.56;;;13.09;69.59
16664;BME280;8445;51.270;9.434;2024-02-04T10:56:36;99885.56;;;13.37;68.34
16664;BME280;8445;51.270;9.434;2024-02-04T10:59:03;99896.75;;;13.53;67.41
16664;BME280;8445;51.270;9.434;2024-02-04T11:01:30;99873.91;;;13.57;66.42
16664;BME280;8445;51.270;9.434;2024-02-04T11:03:58;99865.66;;;13.52;66.30
16664;BME280;8445;51.270;9.434;2024-02-04T11:06:26;99870.22;;;13.58;65.81
16664;BME280;8445;51.270;9.434;2024-02-04T11:09:01;99860.53;;;13.57;66.10
16664;BME280;8445;51.270;9.434;2024-02-04T11:11:34;99854.56;;;13.55;64.78
16664;BME280;8445;51.270;9.434;2024-02-04T11:14:13;99871.03;;;13.52;65.98
16664;BME280;8445;51.270;9.434;2024-02-04T11:17:23;99865.25;;;13.55;65.77
16664;BME280;8445;51.270;9.434;2024-02-04T11:20:28;99877.59;;;13.50;65.72
16664;BME280;8445;51.270;9.434;2024-02-04T11:23:21;99849.31;;;13.34;66.59
16664;BME280;8445;51.270;9.434;2024-02-04T11:25:55;99847.47;;;13.35;66.75
16664;BME280;8445;51.270;9.434;2024-02-04T11:28:23;99856.91;;;13.24;66.19
16664;BME280;8445;51.270;9.434;2024-02-04T11:30:51;99849.16;;;13.08;65.01
16664;BME280;8445;51.270;9.434;2024-02-04T11:33:27;99847.91;;;12.97;66.26
16664;BME280;8445;51.270;9.434;2024-02-04T11:36:05;99866.97;;;12.87;67.15
16664;BME280;8445;51.270;9.434;2024-02-04T11:38:36;99860.69;;;12.73;67.30
16664;BME280;8445;51.270;9.434;2024-02-04T11:41:04;99858.16;;;12.65;67.97
16664;BME280;8445;51.270;9.434;2024-02-04T11:43:33;99857.31;;;12.58;68.27
16664;BME280;8445;51.270;9.434;2024-02-04T11:46:02;99843.69;;;12.53;68.66
16664;BME280;8445;51.270;9.434;2024-02-04T11:48:32;99852.69;;;12.46;69.04
16664;BME280;8445;51.270;9.434;2024-02-04T11:51:03;99840.69;;;12.35;69.38
16664;BME280;8445;51.270;9.434;2024-02-04T11:53:31;99832.56;;;12.22;69.87
16664;BME280;8445;51.270;9.434;2024-02-04T11:56:00;99836.47;;;12.26;70.20
16664;BME280;8445;51.270;9.434;2024-02-04T11:58:27;99830.72;;;12.22;70.53
16664;BME280;8445;51.270;9.434;2024-02-04T12:00:56;99839.78;;;12.28;70.71
16664;BME280;8445;51.270;9.434;2024-02-04T12:03:33;99826.59;;;12.48;70.44
16664;BME280;8445;51.270;9.434;2024-02-04T12:05:59;99826.69;;;12.61;70.32
16664;BME280;8445;51.270;9.434;2024-02-04T12:08:32;99833.53;;;12.70;70.14
16664;BME280;8445;51.270;9.434;2024-02-04T12:10:59;99812.81;;;12.79;70.00
16664;BME280;8445;51.270;9.434;2024-02-04T12:13:25;99802.38;;;12.84;69.52
16664;BME280;8445;51.270;9.434;2024-02-04T12:15:53;99798.53;;;12.99;69.88
16664;BME280;8445;51.270;9.434;2024-02-04T12:18:19;99801.28;;;13.13;69.89
16664;BME280;8445;51.270;9.434;2024-02-04T12:20:49;99814.13;;;13.30;69.52
16664;BME280;8445;51.270;9.434;2024-02-04T12:23:17;99793.59;;;13.38;68.65
16664;BME280;8445;51.270;9.434;2024-02-04T12:25:50;99794.44;;;13.51;68.47
16664;BME280;8445;51.270;9.434;2024-02-04T12:28:16;99792.59;;;13.52;67.42
16664;BME280;8445;51.270;9.434;2024-02-04T12:30:54;99803.00;;;13.34;68.17
16664;BME280;8445;51.270;9.434;2024-02-04T12:33:24;99806.50;;;13.27;68.26
16664;BME280;8445;51.270;9.434;2024-02-04T12:35:55;99797.81;;;13.19;68.59
16664;BME280;8445;51.270;9.434;2024-02-04T12:38:22;99807.03;;;13.16;68.58
16664;BME280;8445;51.270;9.434;2024-02-04T12:40:48;99797.78;;;13.12;68.76
16664;BME280;8445;51.270;9.434;2024-02-04T12:43:14;99787.03;;;13.06;68.71
16664;BME280;8445;51.270;9.434;2024-02-04T12:45:41;99796.72;;;13.07;68.96
16664;BME280;8445;51.270;9.434;2024-02-04T12:48:08;99774.63;;;12.91;69.36
16664;BME280;8445;51.270;9.434;2024-02-04T12:50:37;99810.69;;;13.09;68.91
16664;BME280;8445;51.270;9.434;2024-02-04T12:53:09;99791.06;;;12.88;69.26
16664;BME280;8445;51.270;9.434;2024-02-04T12:55:40;99781.34;;;12.81;69.43
16664;BME280;8445;51.270;9.434;2024-02-04T13:01:04;99811.22;;;12.84;69.79
16664;BME280;8445;51.270;9.434;2024-02-04T13:03:41;99809.84;;;12.67;70.18
16664;BME280;8445;51.270;9.434;2024-02-04T13:06:10;99823.31;;;12.80;70.51
16664;BME280;8445;51.270;9.434;2024-02-04T13:08:38;99783.41;;;12.79;70.47
16664;BME280;8445;51.270;9.434;2024-02-04T13:11:09;99772.22;;;12.96;70.06
16664;BME280;8445;51.270;9.434;2024-02-04T13:13:56;99801.03;;;13.08;69.62
16664;BME280;8445;51.270;9.434;2024-02-04T13:16:22;99788.03;;;12.98;69.33
16664;BME280;8445;51.270;9.434;2024-02-04T13:18:55;99777.09;;;12.86;68.58
16664;BME280;8445;51.270;9.434;2024-02-04T13:21:21;99793.63;;;13.03;67.61
16664;BME280;8445;51.270;9.434;2024-02-04T13:23:50;99745.97;;;12.72;67.60